.
WxDataArchive / Data Records for 2010-06-16
2010-06-15 June 2010 2010-06-17

Data Records for Wednesday, 16 June 2010

Time	Temp	Chill	HIndex	Humid	Dewpt	 Wind 	HiWind	WindDir	Rain 	Barom 
-----	----	-----	------	-----	-----	------	------	-------	-----	----- 
00:00	70.8	70.8	70.8	86	66.4	0	5	338	0.00	29.861 
00:05	70.6	70.6	70.6	86	66.2	1	5	292	0.00	29.861 
00:10	70.6	70.6	70.6	86	66.2	1	4	248	0.00	29.861 
00:15	70.6	70.6	70.6	86	66.2	0	2	248	0.00	29.865 
00:20	70.6	70.6	70.6	86	66.2	1	4	270	0.00	29.865 
00:25	70.8	70.8	70.8	85	66.1	1	6	248	0.00	29.865 
00:30	70.8	70.8	70.8	85	66.1	1	5	270	0.00	29.861 
00:35	70.9	70.9	70.9	85	66.2	2	10	270	0.00	29.861 
00:40	70.9	70.9	70.9	84	65.8	1	5	270	0.00	29.861 
00:45	70.9	70.9	70.9	84	65.8	2	6	248	0.00	29.863 
00:50	70.9	70.9	70.9	85	66.2	1	5	248	0.00	29.863 
00:55	70.9	70.9	70.9	84	65.8	1	5	270	0.00	29.863 
01:00	70.9	70.9	70.9	85	66.2	2	5	292	0.00	29.867 
01:05	70.9	70.9	70.9	85	66.2	2	5	248	0.00	29.867 
01:10	70.9	70.9	70.9	85	66.2	2	6	270	0.00	29.867 
01:15	70.8	70.8	70.8	85	66.1	1	4	248	0.00	29.862 
01:20	70.8	70.8	70.8	85	66.1	1	6	248	0.00	29.862 
01:25	70.8	70.8	70.8	86	66.4	2	7	248	0.00	29.862 
01:30	70.8	70.8	70.8	86	66.4	1	4	248	0.00	29.860 
01:35	70.8	70.8	70.8	86	66.4	1	5	248	0.00	29.860 
01:40	70.8	70.8	70.8	86	66.4	1	5	270	0.00	29.860 
01:45	70.8	70.8	70.8	86	66.4	2	4	225	0.00	29.862 
01:50	70.8	70.8	70.8	86	66.4	1	4	270	0.00	29.862 
01:55	70.6	70.6	70.6	87	66.5	1	4	248	0.00	29.862 
02:00	70.6	70.6	70.6	87	66.5	1	4	248	0.00	29.865 
02:05	70.6	70.6	70.6	87	66.5	1	4	248	0.00	29.865 
02:10	70.6	70.6	70.6	87	66.5	2	5	292	0.00	29.865 
02:15	70.4	70.4	70.4	87	66.3	1	3	292	0.00	29.854 
02:20	70.4	70.4	70.4	88	66.7	1	5	248	0.00	29.854 
02:25	70.4	70.4	70.4	88	66.7	2	4	225	0.00	29.854 
02:30	70.6	70.6	70.6	88	66.9	1	4	315	0.00	29.853 
02:35	70.6	70.6	70.6	88	66.9	1	3	292	0.00	29.853 
02:40	70.4	70.4	70.4	88	66.7	1	5	270	0.00	29.853 
02:45	70.4	70.4	70.4	89	67.0	2	5	270	0.00	29.856 
02:50	70.3	70.3	70.3	89	66.9	1	3	270	0.00	29.856 
02:55	70.1	70.1	70.1	90	67.0	1	5	270	0.00	29.856 
03:00	69.9	69.9	69.9	91	67.1	1	4	270	0.00	29.865 
03:05	69.9	69.9	69.9	91	67.1	1	4	270	0.00	29.865 
03:10	69.8	69.8	69.8	92	67.4	1	4	248	0.00	29.865 
03:15	69.8	69.8	69.8	92	67.4	2	4	248	0.00	29.867 
03:20	69.6	69.6	69.6	92	67.2	1	4	270	0.00	29.867 
03:25	69.6	69.6	69.6	92	67.2	2	4	270	0.00	29.867 
03:30	69.8	69.8	69.8	92	67.4	1	3	225	0.00	29.869 
03:35	69.8	69.8	69.8	92	67.4	1	2	248	0.00	29.869 
03:40	69.8	69.8	69.8	92	67.4	1	4	248	0.00	29.869 
03:45	69.8	69.8	69.8	92	67.4	1	4	248	0.00	29.873 
03:50	69.9	69.9	69.9	92	67.5	1	3	248	0.00	29.873 
03:55	69.9	69.9	69.9	92	67.5	2	5	248	0.00	29.873 
04:00	70.1	70.1	70.1	91	67.3	1	4	292	0.00	29.881 
04:05	70.1	70.1	70.1	91	67.3	2	6	270	0.00	29.881 
04:10	70.1	70.1	70.1	90	67.0	1	5	270	0.00	29.881 
04:15	70.3	70.3	70.3	89	66.9	2	4	270	0.00	29.884 
04:20	70.3	70.3	70.3	88	66.6	2	5	270	0.00	29.884 
04:25	70.4	70.4	70.4	88	66.7	2	5	270	0.00	29.884 
04:30	70.4	70.4	70.4	87	66.3	3	6	270	0.00	29.885 
04:35	70.4	70.4	70.4	87	66.3	2	6	270	0.00	29.885 
04:40	70.6	70.6	70.6	87	66.5	2	5	270	0.00	29.885 
04:45	70.6	70.6	70.6	87	66.5	3	6	270	0.00	29.886 
04:50	70.6	70.6	70.6	86	66.2	3	5	315	0.00	29.886 
04:55	70.6	70.6	70.6	87	66.5	3	5	270	0.00	29.886 
05:00	70.4	70.4	70.4	87	66.3	2	6	270	0.00	29.897 
05:05	70.4	70.4	70.4	86	66.0	3	6	270	0.00	29.897 
05:10	70.4	70.4	70.4	86	66.0	3	6	270	0.00	29.897 
05:15	70.4	70.4	70.4	86	66.0	2	4	270	0.00	29.899 
05:20	70.3	70.3	70.3	87	66.2	1	4	270	0.00	29.899 
05:25	70.3	70.3	70.3	87	66.2	1	4	270	0.00	29.899 
05:30	70.3	70.3	70.3	87	66.2	2	4	270	0.00	29.899 
05:35	70.3	70.3	70.3	87	66.2	2	5	270	0.00	29.899 
05:40	70.1	70.1	70.1	87	66.0	2	4	270	0.00	29.899 
05:45	70.1	70.1	70.1	87	66.0	1	3	270	0.00	29.901 
05:50	69.9	69.9	69.9	87	65.8	2	4	270	0.00	29.901 
05:55	69.8	69.8	69.8	87	65.7	1	4	270	0.00	29.901 
06:00	69.8	69.8	69.8	87	65.7	1	5	270	0.00	29.903 
06:05	69.6	69.6	69.6	87	65.6	2	5	270	0.00	29.903 
06:10	69.6	69.6	69.6	87	65.6	2	4	270	0.00	29.903 
06:15	69.6	69.6	69.6	87	65.6	3	5	202	0.00	29.902 
06:20	69.6	69.6	69.6	86	65.2	2	5	270	0.00	29.902 
06:25	69.6	69.6	69.6	86	65.2	1	4	270	0.00	29.902 
06:30	69.6	69.6	69.6	86	65.2	1	4	292	0.00	29.910 
06:35	69.6	69.6	69.6	86	65.2	1	3	292	0.00	29.910 
06:40	69.6	69.6	69.6	86	65.2	1	4	270	0.00	29.910 
06:45	69.6	69.6	69.6	87	65.6	1	3	338	0.00	29.918 
06:50	69.6	69.6	69.6	87	65.6	1	4	315	0.00	29.918 
06:55	69.8	69.8	69.8	87	65.7	2	4	292	0.00	29.918 
07:00	69.8	69.8	69.8	87	65.7	1	4	292	0.00	29.929 
07:05	69.9	69.9	69.9	87	65.8	1	3	270	0.00	29.929 
07:10	69.9	69.9	69.9	87	65.8	1	5	270	0.00	29.929 
07:15	69.9	69.9	69.9	87	65.8	1	5	270	0.00	29.929 
07:20	70.3	70.3	70.3	87	66.2	1	3	270	0.00	29.929 
07:25	70.3	70.3	70.3	86	65.9	1	4	270	0.00	29.929 
07:30	70.3	70.3	70.3	86	65.9	2	3	270	0.00	29.931 
07:35	70.3	70.3	70.3	86	65.9	2	5	270	0.00	29.931 
07:40	70.4	70.4	70.4	86	66.0	2	4	270	0.00	29.931 
07:45	70.6	70.6	70.6	85	65.9	2	5	270	0.00	29.936 
07:50	70.8	70.8	70.8	84	65.7	2	6	270	0.00	29.936 
07:55	71.1	71.1	71.1	84	66.0	2	5	270	0.00	29.936 
08:00	70.9	70.9	70.9	83	65.5	3	6	270	0.00	29.945 
08:05	71.1	71.1	71.1	83	65.7	2	4	292	0.00	29.945 
08:10	71.3	71.3	71.3	83	65.9	2	5	270	0.00	29.945 
08:15	71.6	71.6	71.6	83	66.2	1	3	292	0.00	29.950 
08:20	71.5	71.5	71.5	82	65.7	2	5	292	0.00	29.950 
08:25	71.6	71.6	71.6	81	65.4	2	4	270	0.00	29.950 
08:30	71.6	71.6	71.6	82	65.8	2	5	270	0.00	29.959 
08:35	71.8	71.8	71.8	82	66.0	1	4	270	0.00	29.959 
08:40	72.1	72.1	72.1	81	65.9	1	2	270	0.00	29.959 
08:45	72.5	72.5	72.5	80	66.0	2	5	292	0.00	29.959 
08:50	72.5	72.5	72.5	78	65.2	2	5	270	0.00	29.959 
08:55	72.8	72.8	72.8	79	65.9	1	3	270	0.00	29.959 
09:00	73.0	73.0	73.0	77	65.3	2	4	270	0.00	29.959 
09:05	73.2	73.2	73.2	76	65.2	2	6	270	0.00	29.959 
09:10	73.2	73.2	73.2	77	65.5	2	5	270	0.00	29.959 
09:15	73.3	73.3	73.3	76	65.3	2	5	270	0.00	29.961 
09:20	73.5	73.5	73.5	76	65.5	2	5	270	0.00	29.961 
09:25	73.5	73.5	73.5	74	64.7	3	7	270	0.00	29.961 
09:30	73.5	73.5	73.5	74	64.7	2	4	270	0.00	29.961 
09:35	73.7	73.7	73.7	73	64.5	3	5	270	0.00	29.961 
09:40	73.9	73.9	73.9	71	63.9	2	7	248	0.00	29.961 
09:45	74.4	74.4	74.4	73	65.2	2	4	292	0.00	29.961 
09:50	74.6	74.6	74.6	70	64.2	2	5	270	0.00	29.961 
09:55	74.6	74.6	74.6	69	63.7	3	8	270	0.00	29.961 
10:00	74.6	74.6	74.6	66	62.5	3	6	270	0.00	29.962 
10:05	75.1	75.1	76.9	68	63.8	2	5	270	0.00	29.962 
10:10	75.1	75.1	77.1	65	62.5	3	6	270	0.00	29.962 
10:15	75.1	75.1	77.3	63	61.6	3	7	270	0.00	29.966 
10:20	75.4	75.4	77.4	64	62.4	2	6	315	0.00	29.966 
10:25	75.6	75.6	77.7	60	60.7	3	5	292	0.00	29.966 
10:30	75.4	75.4	77.7	58	59.6	4	7	270	0.00	29.965 
10:35	75.3	75.3	77.6	57	59.0	4	9	270	0.00	29.965 
10:40	75.6	75.6	77.8	58	59.8	3	7	270	0.00	29.965 
10:45	75.8	75.8	77.9	56	59.0	4	7	270	0.00	29.965 
10:50	76.1	76.1	78.1	58	60.2	4	6	270	0.00	29.965 
10:55	76.1	76.1	78.1	56	59.2	3	6	270	0.00	29.965 
11:00	76.5	76.5	78.4	55	59.1	3	6	270	0.00	29.965 
11:05	76.5	76.5	78.4	56	59.6	4	6	270	0.00	29.965 
11:10	76.5	76.5	78.4	55	59.1	4	10	270	0.00	29.965 
11:15	76.5	76.5	78.4	54	58.6	4	7	315	0.00	29.967 
11:20	76.7	76.7	78.5	54	58.8	4	7	270	0.00	29.967 
11:25	77.0	77.0	78.7	56	60.1	3	7	270	0.00	29.967 
11:30	76.5	76.5	78.4	53	58.1	4	7	292	0.00	29.969 
11:35	76.7	76.7	78.5	55	59.3	3	6	270	0.00	29.969 
11:40	76.8	76.8	78.6	54	58.9	4	7	270	0.00	29.969 
11:45	76.3	76.3	78.3	55	58.9	2	5	270	0.00	29.972 
11:50	76.3	76.3	78.2	53	57.9	4	6	270	0.00	29.972 
11:55	76.5	76.5	78.3	51	57.0	4	7	292	0.00	29.972 
12:00	76.8	76.8	78.5	52	57.8	3	7	292	0.00	29.975 
12:05	77.0	77.0	78.7	53	58.5	4	10	270	0.00	29.975 
12:10	77.2	77.2	78.9	55	59.8	3	5	292	0.00	29.975 
12:15	77.0	77.0	78.7	55	59.6	3	7	270	0.00	29.979 
12:20	77.0	77.0	78.6	51	57.5	3	7	270	0.00	29.979 
12:25	76.8	76.8	78.5	52	57.8	3	5	292	0.00	29.979 
12:30	77.4	77.4	78.9	53	58.9	4	9	270	0.00	29.980 
12:35	77.4	77.4	78.9	52	58.4	3	6	270	0.00	29.980 
12:40	77.7	77.7	79.2	53	59.2	3	5	270	0.00	29.980 
12:45	77.7	77.7	79.2	53	59.2	3	8	292	0.00	29.979 
12:50	77.7	77.7	79.1	52	58.6	3	7	270	0.00	29.979 
12:55	77.9	77.9	79.3	52	58.8	2	5	270	0.00	29.979 
13:00	78.3	78.3	79.5	51	58.7	3	7	270	0.00	29.982 
13:05	78.6	78.6	79.8	52	59.5	3	7	270	0.00	29.982 
13:10	78.6	78.6	79.7	50	58.4	4	7	270	0.00	29.982 
13:15	78.5	78.5	79.6	51	58.8	3	6	270	0.00	29.979 
13:20	78.5	78.5	79.8	53	59.9	2	5	270	0.00	29.979 
13:25	77.9	77.9	79.2	51	58.3	3	6	270	0.00	29.979 
13:30	78.5	78.5	79.8	53	59.9	3	6	270	0.00	29.982 
13:35	78.5	78.5	79.5	49	57.7	4	7	270	0.00	29.982 
13:40	78.6	78.6	79.6	49	57.8	2	7	270	0.00	29.982 
13:45	78.6	78.6	79.7	51	58.9	3	6	270	0.00	29.984 
13:50	78.6	78.6	79.9	54	60.5	3	5	270	0.00	29.984 
13:55	78.8	78.8	79.8	50	58.6	3	5	270	0.00	29.984 
14:00	79.0	79.0	79.8	48	57.6	4	7	270	0.00	29.980 
14:05	79.0	79.0	80.0	51	59.3	3	6	270	0.00	29.980 
14:10	79.2	79.2	80.1	50	58.9	4	7	270	0.00	29.980 
14:15	79.4	79.4	80.2	49	58.5	3	9	270	0.00	29.980 
14:20	78.6	78.6	79.6	49	57.8	3	5	270	0.00	29.980 
14:25	78.5	78.5	79.5	49	57.7	3	6	270	0.00	29.980 
14:30	78.8	78.8	79.7	49	58.0	3	5	270	0.00	29.980 
14:35	78.1	78.1	79.3	49	57.4	4	9	270	0.00	29.980 
14:40	77.7	77.7	79.2	53	59.2	3	6	270	0.00	29.980 
14:45	78.5	78.5	79.6	51	58.8	3	6	270	0.00	29.980 
14:50	79.0	79.0	79.9	49	58.2	4	7	270	0.00	29.980 
14:55	79.2	79.2	80.1	49	58.4	2	6	270	0.00	29.980 
15:00	79.6	79.6	80.5	50	59.3	3	6	270	0.00	29.978 
15:05	79.6	79.6	80.4	49	58.7	2	6	315	0.00	29.978 
15:10	79.9	79.9	80.4	47	57.8	3	6	270	0.00	29.978 
15:15	79.8	79.8	80.5	48	58.3	2	7	292	0.00	29.978 
15:20	79.2	79.2	80.1	49	58.4	4	7	270	0.00	29.978 
15:25	78.8	78.8	79.9	52	59.7	3	6	270	0.00	29.978 
15:30	79.6	79.6	80.1	46	57.0	4	6	270	0.00	29.980 
15:35	79.6	79.6	80.3	48	58.2	4	9	270	0.00	29.980 
15:40	79.2	79.2	80.0	48	57.8	2	5	270	0.00	29.980 
15:45	78.6	78.6	79.7	51	58.9	2	5	292	0.00	29.981 
15:50	79.0	79.0	79.8	48	57.6	4	7	270	0.00	29.981 
15:55	79.2	79.2	80.2	51	59.5	3	6	270	0.00	29.981 
16:00	79.2	79.2	80.1	49	58.4	4	7	270	0.00	29.980 
16:05	79.0	79.0	79.9	49	58.2	3	6	315	0.00	29.980 
16:10	78.8	78.8	79.9	52	59.7	3	6	270	0.00	29.980 
16:15	79.6	79.6	80.4	49	58.7	3	6	270	0.00	29.979 
16:20	79.9	79.9	80.6	49	59.0	2	6	270	0.00	29.979 
16:25	79.8	79.8	80.5	48	58.3	3	7	270	0.00	29.979 
16:30	79.6	79.6	80.3	48	58.2	3	7	270	0.00	29.978 
16:35	79.8	79.8	80.5	49	58.9	2	4	292	0.00	29.978 
16:40	80.5	80.5	81.2	49	59.6	2	6	270	0.00	29.978 
16:45	80.5	80.5	81.0	48	59.0	3	6	270	0.00	29.977 
16:50	80.1	80.1	80.8	49	59.2	3	6	270	0.00	29.977 
16:55	80.1	80.1	80.8	49	59.2	3	5	292	0.00	29.977 
17:00	79.8	79.8	80.6	50	59.5	3	5	270	0.00	29.979 
17:05	79.6	79.6	80.4	49	58.7	3	6	270	0.00	29.979 
17:10	79.6	79.6	80.5	50	59.3	2	5	292	0.00	29.979 
17:15	79.8	79.8	80.6	50	59.5	3	8	292	0.00	29.977 
17:20	79.0	79.0	79.9	49	58.2	2	5	338	0.00	29.977 
17:25	79.2	79.2	80.1	49	58.4	2	5	270	0.00	29.977 
17:30	78.6	78.6	79.7	50	58.4	2	4	270	0.00	29.975 
17:35	79.4	79.4	80.2	49	58.5	1	3	292	0.00	29.975 
17:40	80.1	80.1	80.8	49	59.2	1	5	292	0.00	29.975 
17:45	80.1	80.1	80.5	46	57.4	2	7	315	0.00	29.977 
17:50	79.4	79.4	80.1	47	57.4	2	4	315	0.00	29.977 
17:55	79.4	79.4	80.1	47	57.4	2	6	292	0.00	29.977 
18:00	79.2	79.2	79.8	46	56.6	3	6	270	0.00	29.978 
18:05	79.2	79.2	79.8	46	56.6	3	6	270	0.00	29.978 
18:10	79.4	79.4	80.0	46	56.8	4	7	270	0.00	29.978 
18:15	79.4	79.4	80.0	46	56.8	3	5	338	0.00	29.979 
18:20	79.2	79.2	79.9	47	57.2	2	4	315	0.00	29.979 
18:25	79.2	79.2	79.8	46	56.6	3	10	292	0.00	29.979 
18:30	79.2	79.2	80.1	50	58.9	1	5	292	0.00	29.978 
18:35	79.4	79.4	80.1	47	57.4	2	5	315	0.00	29.978 
18:40	79.0	79.0	79.8	47	57.0	2	5	315	0.00	29.978 
18:45	78.8	78.8	79.7	48	57.4	1	3	338	0.00	29.978 
18:50	78.8	78.8	79.6	47	56.8	2	6	315	0.00	29.978 
18:55	78.8	78.8	79.6	47	56.8	1	3	315	0.00	29.978 
19:00	78.8	78.8	79.7	48	57.4	1	3	315	0.00	29.980 
19:05	78.8	78.8	79.7	49	58.0	1	5	292	0.00	29.980 
19:10	78.8	78.8	79.7	49	58.0	2	4	292	0.00	29.980 
19:15	78.6	78.6	79.5	48	57.2	2	5	315	0.00	29.978 
19:20	78.3	78.3	79.4	49	57.5	2	4	315	0.00	29.978 
19:25	78.3	78.3	79.4	49	57.5	1	3	292	0.00	29.978 
19:30	78.3	78.3	79.4	50	58.1	0	2	338	0.00	29.981 
19:35	77.9	77.9	79.2	50	57.7	1	3	338	0.00	29.981 
19:40	77.7	77.7	79.0	50	57.6	1	4	292	0.00	29.981 
19:45	77.6	77.6	79.0	51	58.0	0	1	270	0.00	29.981 
19:50	77.6	77.6	79.1	53	59.1	0	2	270	0.00	29.981 
19:55	77.2	77.2	78.8	53	58.7	0	2	315	0.00	29.981 
20:00	77.0	77.0	78.7	54	59.1	0	1	315	0.00	29.981 
20:05	77.0	77.0	78.7	54	59.1	0	2	315	0.00	29.981 
20:10	77.0	77.0	78.7	54	59.1	0	1	315	0.00	29.981 
20:15	76.7	76.7	78.5	56	59.8	0	0	---	0.00	29.979 
20:20	76.3	76.3	78.3	55	58.9	0	1	315	0.00	29.979 
20:25	76.1	76.1	78.1	57	59.7	0	2	315	0.00	29.979 
20:30	75.8	75.8	77.9	57	59.5	0	1	315	0.00	29.983 
20:35	75.4	75.4	77.7	58	59.6	0	0	---	0.00	29.983 
20:40	75.1	75.1	77.5	59	59.8	0	0	---	0.00	29.983 
20:45	74.7	74.7	74.7	60	59.9	0	0	---	0.00	29.986 
20:50	74.4	74.4	74.4	61	60.1	0	0	---	0.00	29.986 
20:55	74.0	74.0	74.0	62	60.1	0	0	---	0.00	29.986 
21:00	73.9	73.9	73.9	62	60.0	0	0	---	0.00	29.988 
21:05	73.5	73.5	73.5	63	60.1	0	0	---	0.00	29.988 
21:10	73.3	73.3	73.3	64	60.4	0	0	---	0.00	29.988 
21:15	73.0	73.0	73.0	64	60.1	0	0	---	0.00	29.989 
21:20	72.8	72.8	72.8	65	60.3	0	0	---	0.00	29.989 
21:25	72.5	72.5	72.5	65	60.0	0	0	---	0.00	29.989 
21:30	72.1	72.1	72.1	66	60.1	0	0	---	0.00	29.994 
21:35	72.0	72.0	72.0	67	60.4	0	0	---	0.00	29.994 
21:40	71.6	71.6	71.6	67	60.0	0	0	---	0.00	29.994 
21:45	71.3	71.3	71.3	68	60.2	0	0	---	0.00	29.994 
21:50	71.1	71.1	71.1	69	60.4	0	0	---	0.00	29.994 
21:55	70.8	70.8	70.8	69	60.1	0	0	---	0.00	29.994 
22:00	70.6	70.6	70.6	69	59.9	0	0	---	0.00	29.998 
22:05	70.4	70.4	70.4	70	60.1	0	0	---	0.00	29.998 
22:10	70.1	70.1	70.1	71	60.2	0	0	---	0.00	29.998 
22:15	69.9	69.9	69.9	72	60.4	0	0	---	0.00	30.006 
22:20	69.8	69.8	69.8	73	60.7	0	0	---	0.00	30.006 
22:25	69.6	69.6	69.6	73	60.6	0	0	---	0.00	30.006 
22:30	69.3	69.3	69.3	73	60.3	0	0	---	0.00	30.011 
22:35	69.1	69.1	69.1	74	60.5	0	0	---	0.00	30.011 
22:40	68.9	68.9	68.9	75	60.6	0	0	---	0.00	30.011 
22:45	68.8	68.8	68.8	76	60.9	0	0	---	0.00	30.015 
22:50	68.4	68.4	68.4	77	60.9	0	0	---	0.00	30.015 
22:55	68.3	68.3	68.3	77	60.8	0	0	---	0.00	30.015 
23:00	68.1	68.1	68.1	78	61.0	0	0	---	0.00	30.023 
23:05	67.9	67.9	67.9	78	60.8	0	0	---	0.00	30.023 
23:10	67.8	67.8	67.8	79	61.0	0	0	---	0.00	30.023 
23:15	67.4	67.4	67.4	80	61.0	0	0	---	0.00	30.029 
23:20	67.3	67.3	67.3	81	61.3	0	0	---	0.00	30.029 
23:25	67.1	67.1	67.1	81	61.1	0	0	---	0.00	30.029 
23:30	66.9	66.9	66.9	82	61.2	0	0	---	0.00	30.031 
23:35	66.6	66.6	66.6	83	61.3	0	0	---	0.00	30.031 
23:40	66.4	66.4	66.4	83	61.1	0	0	---	0.00	30.031 
23:45	66.3	66.3	66.3	84	61.3	0	0	---	0.00	30.033 
23:50	66.1	66.1	66.1	85	61.5	0	0	---	0.00	30.033 
23:55	66.0	66.0	66.0	85	61.4	0	0	---	0.00	30.033 

CoCoRaHS
IN-AL-39
A2 Web Hosting
Creative Commons License
GoDaddy
search engine by freefind advanced

loaded 2018-11-19 10:58:39 • last modified 2010-11-18 10:43:29
Privacy PolicyDisclaimer
• wx.awcolley.com is powered by PmWiki v.2002016 •
• all content (unless otherwise noted) © 2018 A W Colley